Time;durP1;ratioP1;P1;durP2;ratioP2;P2;SDS_P1;SDS_P2;PMS_P1;PMS_P2;Temp;Humidity;BMP_temperature;BMP_pressure;BME280_temperature;BME280_humidity;BME280_pressure;Samples;Min_cycle;Max_cycle;Signal;HPM_P1;HPM_P2
2023/09/05 00:03:40;;;;;;;4.17;3.80;;;20.50;96.10;;;;;;10198672;28;20214;-81
2023/09/05 00:08:54;;;;;;;3.90;3.60;;;20.50;96.40;;;;;;10197587;29;20222;-81
2023/09/05 00:14:04;;;;;;;3.67;3.37;;;20.40;97.50;;;;;;10212966;29;20205;-81
2023/09/05 00:19:10;;;;;;;4.97;4.57;;;20.30;97.30;;;;;;10211511;29;20221;-81
2023/09/05 00:24:31;;;;;;;3.83;3.53;;;20.30;98.90;;;;;;10197267;29;20274;-81
2023/09/05 00:29:44;;;;;;;3.57;3.33;;;20.30;96.90;;;;;;10214952;28;20236;-81
2023/09/05 00:34:49;;;;;;;3.40;3.20;;;20.20;94.60;;;;;;10196650;29;20198;-81
2023/09/05 00:39:54;;;;;;;3.20;2.90;;;20.30;94.40;;;;;;10199487;29;20228;-81
2023/09/05 00:45:10;;;;;;;59.60;6.60;;;20.20;94.80;;;;;;10214176;29;20293;-81
2023/09/05 00:50:13;;;;;;;4.43;3.77;;;20.20;95.50;;;;;;10209595;28;20253;-79
2023/09/05 00:55:18;;;;;;;3.87;3.60;;;20.20;95.00;;;;;;10231462;28;20201;-80
2023/09/05 01:00:22;;;;;;;3.30;3.10;;;20.20;95.40;;;;;;10227239;28;20234;-77
2023/09/05 01:05:28;;;;;;;4.03;3.73;;;20.20;96.10;;;;;;10220538;28;20325;-81
2023/09/05 01:10:43;;;;;;;3.30;3.10;;;20.10;96.50;;;;;;10182985;28;20297;-81
2023/09/05 01:15:46;;;;;;;4.70;3.50;;;20.10;95.10;;;;;;10193284;29;20205;-81
2023/09/05 01:21:01;;;;;;;3.70;3.30;;;20.10;96.70;;;;;;10192768;28;20352;-80
2023/09/05 01:26:05;;;;;;;3.80;3.50;;;20.10;96.90;;;;;;10193917;29;20218;-80
2023/09/05 01:31:07;;;;;;;3.60;3.30;;;20.00;96.10;;;;;;10211711;28;20222;-81
2023/09/05 01:36:09;;;;;;;3.90;3.60;;;20.00;96.80;;;;;;10218965;28;20209;-81
2023/09/05 01:41:13;;;;;;;3.60;3.40;;;19.90;97.70;;;;;;10205765;29;20256;-81
2023/09/05 01:46:15;;;;;;;3.60;3.40;;;19.90;97.00;;;;;;10200905;29;20257;-81
2023/09/05 01:51:17;;;;;;;6.80;3.50;;;19.80;96.80;;;;;;10199564;28;20665;-81
2023/09/05 01:56:20;;;;;;;3.70;3.50;;;19.80;96.30;;;;;;10217412;29;20446;-81
2023/09/05 02:01:22;;;;;;;4.17;3.80;;;19.60;96.40;;;;;;10346147;28;20662;-81
2023/09/05 02:06:25;;;;;;;3.83;3.53;;;19.50;96.70;;;;;;10384910;28;20242;-81
2023/09/05 02:11:28;;;;;;;4.17;3.83;;;19.40;97.20;;;;;;10357876;28;20540;-81
2023/09/05 02:16:30;;;;;;;4.27;3.87;;;19.30;97.70;;;;;;10356922;28;20584;-81
2023/09/05 02:21:33;;;;;;;4.20;3.90;;;19.20;97.90;;;;;;10380066;28;20700;-80
2023/09/05 02:26:37;;;;;;;3.77;3.57;;;19.10;97.90;;;;;;10382607;28;21844;-81
2023/09/05 02:31:39;;;;;;;4.40;4.10;;;19.00;97.80;;;;;;10380659;28;20219;-81
2023/09/05 02:36:41;;;;;;;4.00;3.73;;;18.90;98.30;;;;;;10383911;28;20195;-81
2023/09/05 02:41:45;;;;;;;4.60;4.27;;;18.80;98.20;;;;;;10382647;28;20537;-81
2023/09/05 02:46:48;;;;;;;4.50;4.10;;;18.80;98.50;;;;;;10383750;28;20215;-81
2023/09/05 02:51:50;;;;;;;4.77;3.73;;;18.70;98.50;;;;;;10392732;28;20546;-81
2023/09/05 02:56:54;;;;;;;3.43;3.23;;;18.70;98.80;;;;;;10392416;28;20619;-81
2023/09/05 03:01:57;;;;;;;3.97;3.77;;;18.60;98.90;;;;;;10384673;28;20235;-81
2023/09/05 03:07:01;;;;;;;4.50;4.10;;;18.50;98.90;;;;;;10381175;28;20305;-81
2023/09/05 03:12:06;;;;;;;4.10;3.70;;;18.50;98.90;;;;;;10379348;28;20226;-81
2023/09/05 03:17:09;;;;;;;3.90;3.60;;;18.40;99.00;;;;;;10377978;28;20276;-81
2023/09/05 03:22:12;;;;;;;4.33;4.03;;;18.40;99.10;;;;;;10384568;28;20257;-81
2023/09/05 03:27:15;;;;;;;4.80;4.40;;;18.30;99.20;;;;;;10380588;28;20229;-80
2023/09/05 03:32:17;;;;;;;3.97;3.77;;;18.30;99.20;;;;;;10378546;28;20207;-81
2023/09/05 03:37:20;;;;;;;3.93;3.63;;;18.30;98.80;;;;;;10381134;28;20200;-81
2023/09/05 03:42:23;;;;;;;4.87;4.37;;;18.20;98.90;;;;;;10380175;28;20282;-81
2023/09/05 03:47:27;;;;;;;4.23;3.77;;;18.30;99.10;;;;;;10379452;28;20326;-81
2023/09/05 03:52:29;;;;;;;10.93;4.10;;;18.20;98.60;;;;;;10377913;28;20192;-81
2023/09/05 03:57:33;;;;;;;4.80;4.20;;;18.20;99.10;;;;;;10371883;28;20711;-81
2023/09/05 04:02:35;;;;;;;3.90;3.50;;;18.10;99.10;;;;;;10190269;28;20210;-80
2023/09/05 04:07:37;;;;;;;4.03;3.73;;;18.10;99.10;;;;;;10192751;28;20312;-81
2023/09/05 04:12:40;;;;;;;4.10;3.80;;;18.00;99.00;;;;;;10192928;29;20698;-81
2023/09/05 04:17:43;;;;;;;4.87;3.70;;;18.00;99.20;;;;;;10210512;29;20230;-81
2023/09/05 04:22:46;;;;;;;4.20;3.90;;;18.00;99.50;;;;;;10194507;29;20198;-81
2023/09/05 04:27:51;;;;;;;4.37;3.97;;;18.00;99.40;;;;;;10194726;29;20234;-81
2023/09/05 04:32:54;;;;;;;5.30;4.50;;;18.00;99.50;;;;;;10211066;28;20245;-81
2023/09/05 04:37:56;;;;;;;4.90;4.50;;;18.00;99.90;;;;;;10194122;29;20776;-81
2023/09/05 04:42:59;;;;;;;4.33;4.03;;;18.00;99.60;;;;;;10211247;28;20217;-81
2023/09/05 04:48:01;;;;;;;6.00;4.50;;;18.00;99.90;;;;;;10211733;28;20238;-81
2023/09/05 04:53:04;;;;;;;4.80;4.30;;;18.00;99.90;;;;;;10211525;28;20206;-81
2023/09/05 04:58:07;;;;;;;3.83;3.53;;;18.00;99.90;;;;;;10193832;29;20217;-80
2023/09/05 05:03:09;;;;;;;4.47;4.17;;;18.00;99.90;;;;;;10181689;28;20202;-77
2023/09/05 05:08:11;;;;;;;4.33;3.93;;;18.00;99.90;;;;;;10214402;29;20226;-79
2023/09/05 05:13:15;;;;;;;4.43;4.03;;;18.00;99.90;;;;;;10192050;28;20190;-81
2023/09/05 05:18:17;;;;;;;4.57;4.17;;;18.10;99.90;;;;;;10188496;28;20616;-81
2023/09/05 05:23:19;;;;;;;6.00;4.90;;;18.10;99.90;;;;;;10209272;28;20213;-80
2023/09/05 05:28:23;;;;;;;4.50;4.20;;;18.20;99.90;;;;;;10208975;28;20230;-81
2023/09/05 05:33:28;;;;;;;5.50;5.10;;;18.20;99.90;;;;;;10206736;28;20728;-81
2023/09/05 05:38:46;;;;;;;4.20;3.93;;;18.20;99.90;;;;;;10209375;28;20224;-81
2023/09/05 05:43:59;;;;;;;6.00;4.87;;;18.20;99.90;;;;;;10204726;28;20616;-81
2023/09/05 05:49:04;;;;;;;4.97;4.47;;;18.20;99.90;;;;;;10210087;28;20233;-81
2023/09/05 05:54:07;;;;;;;4.73;4.33;;;18.30;99.90;;;;;;10209827;28;20217;-81
2023/09/05 05:59:10;;;;;;;5.57;5.07;;;18.30;99.90;;;;;;10210494;28;20222;-81
2023/09/05 06:04:15;;;;;;;5.10;4.57;;;18.40;99.90;;;;;;10189855;28;20206;-80
2023/09/05 06:09:18;;;;;;;5.47;4.97;;;18.40;99.90;;;;;;10208669;28;20650;-80
2023/09/05 06:14:21;;;;;;;5.00;4.60;;;18.50;99.90;;;;;;10207060;28;20234;-81
2023/09/05 06:19:23;;;;;;;4.93;4.50;;;18.50;99.90;;;;;;10210212;29;20222;-81
2023/09/05 06:24:26;;;;;;;5.57;5.17;;;18.60;99.90;;;;;;10214054;28;20202;-81
2023/09/05 06:29:29;;;;;;;4.80;4.40;;;18.60;99.90;;;;;;10213683;29;20249;-81
2023/09/05 06:34:31;;;;;;;4.27;3.87;;;18.70;99.90;;;;;;10213486;28;20194;-80
2023/09/05 06:39:35;;;;;;;4.57;4.10;;;18.80;99.90;;;;;;10215237;28;20250;-80
2023/09/05 06:44:40;;;;;;;3.80;3.50;;;18.80;99.90;;;;;;10199178;28;20576;-81
2023/09/05 06:49:42;;;;;;;3.43;3.23;;;18.90;99.90;;;;;;10223740;28;20318;-81
2023/09/05 06:54:44;;;;;;;4.07;3.77;;;19.00;99.90;;;;;;10217183;29;20241;-81
2023/09/05 06:59:50;;;;;;;4.07;3.77;;;19.10;99.90;;;;;;10227772;29;20816;-80
2023/09/05 07:04:52;;;;;;;4.13;3.73;;;19.20;99.90;;;;;;10216593;28;20261;-81
2023/09/05 07:09:54;;;;;;;3.77;3.57;;;19.30;99.90;;;;;;10222237;28;20229;-81
2023/09/05 07:15:00;;;;;;;4.97;4.57;;;19.30;99.90;;;;;;10212079;28;20338;-81
2023/09/05 07:20:02;;;;;;;3.60;3.30;;;19.40;99.90;;;;;;10212693;28;20288;-81
2023/09/05 07:25:05;;;;;;;4.13;3.70;;;19.40;99.90;;;;;;10198821;28;20210;-81
2023/09/05 07:30:10;;;;;;;4.97;3.80;;;19.50;99.90;;;;;;10196622;28;20252;-81
2023/09/05 07:35:12;;;;;;;3.97;3.67;;;19.60;99.90;;;;;;10214237;28;20206;-81
2023/09/05 07:40:14;;;;;;;3.53;3.33;;;19.70;99.90;;;;;;10216152;28;20221;-79
2023/09/05 07:45:18;;;;;;;5.93;3.90;;;19.90;99.60;;;;;;10212506;28;20229;-81
2023/09/05 07:50:20;;;;;;;4.63;4.10;;;19.90;99.90;;;;;;10212323;29;20234;-77
2023/09/05 07:55:22;;;;;;;4.70;3.47;;;20.00;99.90;;;;;;10212333;28;20263;-81
2023/09/05 08:00:27;;;;;;;3.50;3.30;;;20.20;99.40;;;;;;10212447;28;20240;-81
2023/09/05 08:05:29;;;;;;;4.23;3.83;;;20.40;98.90;;;;;;10213161;28;20253;-81
2023/09/05 08:10:31;;;;;;;3.70;3.40;;;20.50;98.50;;;;;;10195596;29;20226;-81
2023/09/05 08:15:36;;;;;;;9.17;4.13;;;20.80;97.20;;;;;;10211650;28;20424;-81
2023/09/05 08:20:39;;;;;;;3.97;3.77;;;21.00;98.10;;;;;;10211305;29;20258;-81
2023/09/05 08:25:41;;;;;;;3.60;3.30;;;21.10;97.10;;;;;;10197219;28;20289;-81
2023/09/05 08:30:44;;;;;;;3.80;3.50;;;21.20;97.60;;;;;;10212300;29;20313;-81
2023/09/05 08:35:46;;;;;;;5.80;3.30;;;21.30;97.80;;;;;;10219777;29;20206;-81
2023/09/05 08:40:49;;;;;;;3.57;3.37;;;21.30;98.10;;;;;;10211784;28;20241;-81
2023/09/05 08:45:54;;;;;;;3.30;3.00;;;21.40;98.50;;;;;;10216751;29;20218;-81
2023/09/05 08:50:57;;;;;;;4.13;3.33;;;21.50;96.60;;;;;;10217347;28;20214;-81
2023/09/05 08:56:00;;;;;;;3.07;2.87;;;21.60;97.00;;;;;;10219607;28;20222;-80
2023/09/05 09:01:03;;;;;;;3.10;2.90;;;21.70;97.50;;;;;;10228999;29;20253;-80
2023/09/05 09:06:06;;;;;;;3.23;3.03;;;21.80;95.90;;;;;;10236866;29;20226;-80
2023/09/05 09:11:09;;;;;;;3.70;3.40;;;21.90;95.80;;;;;;10236534;28;20217;-80
2023/09/05 09:16:17;;;;;;;3.20;2.90;;;22.00;95.90;;;;;;10196534;28;20292;-81
2023/09/05 09:21:19;;;;;;;3.30;3.10;;;22.00;97.30;;;;;;10207875;28;20234;-81
2023/09/05 09:26:21;;;;;;;3.67;2.90;;;22.20;95.20;;;;;;10210976;28;20252;-81
2023/09/05 09:31:27;;;;;;;3.23;3.03;;;22.20;96.50;;;;;;10209351;29;20222;-80
2023/09/05 09:36:33;;;;;;;3.57;3.30;;;22.30;96.30;;;;;;10210156;28;20195;-79
2023/09/05 09:41:43;;;;;;;2.53;2.43;;;22.40;96.00;;;;;;10208662;28;20218;-81
2023/09/05 09:46:46;;;;;;;2.93;2.70;;;22.50;95.60;;;;;;10262425;28;20229;-81
2023/09/05 09:51:53;;;;;;;3.13;2.83;;;22.70;96.20;;;;;;10211603;29;20225;-81
2023/09/05 09:57:00;;;;;;;3.40;2.93;;;22.90;95.90;;;;;;10218347;29;20214;-81
2023/09/05 10:02:07;;;;;;;3.53;3.23;;;23.30;94.50;;;;;;10199704;29;20225;-82
2023/09/05 10:07:14;;;;;;;5.07;2.60;;;23.60;94.40;;;;;;10218690;28;20214;-82
2023/09/05 10:12:20;;;;;;;3.20;3.00;;;23.80;94.60;;;;;;10217012;29;20261;-82
2023/09/05 10:17:25;;;;;;;2.60;2.40;;;23.80;95.40;;;;;;10198494;28;20549;-81
2023/09/05 10:22:32;;;;;;;3.27;2.97;;;23.60;95.70;;;;;;10220038;28;20210;-81
2023/09/05 10:27:35;;;;;;;3.20;2.80;;;23.50;94.00;;;;;;10216607;29;20268;-81
2023/09/05 10:32:41;;;;;;;3.57;3.30;;;23.50;93.70;;;;;;10214717;28;20214;-81
2023/09/05 10:37:50;;;;;;;5.60;2.60;;;23.50;93.50;;;;;;10198189;28;20220;-81
2023/09/05 10:42:55;;;;;;;2.70;2.50;;;23.40;93.70;;;;;;10213212;29;20202;-81
2023/09/05 10:48:02;;;;;;;2.33;2.23;;;23.30;93.70;;;;;;10217308;29;20234;-82
2023/09/05 10:53:22;;;;;;;3.03;2.87;;;23.30;94.00;;;;;;10198912;28;20205;-82
2023/09/05 10:58:51;;;;;;;2.40;2.30;;;23.40;93.60;;;;;;10213819;29;20656;-81
2023/09/05 11:03:54;;;;;;;3.03;2.83;;;23.50;92.70;;;;;;10209484;28;20203;-82
2023/09/05 11:08:57;;;;;;;2.40;2.30;;;23.60;93.70;;;;;;10212303;28;20634;-78
2023/09/05 11:13:59;;;;;;;3.70;2.87;;;23.60;93.00;;;;;;10212692;29;20209;-81
2023/09/05 11:19:03;;;;;;;2.37;2.20;;;23.60;94.30;;;;;;10214189;29;20224;-82
2023/09/05 11:24:06;;;;;;;2.87;2.40;;;23.50;94.00;;;;;;10213354;29;20292;-80
2023/09/05 11:29:08;;;;;;;2.10;1.90;;;23.50;93.70;;;;;;10211594;29;20221;-81
2023/09/05 11:34:16;;;;;;;2.63;2.50;;;23.60;93.70;;;;;;10213309;28;20198;-81
2023/09/05 11:39:19;;;;;;;7.20;4.53;;;23.60;93.20;;;;;;10210567;28;20226;-81
2023/09/05 11:44:31;;;;;;;3.20;3.00;;;23.60;93.10;;;;;;10211813;28;20567;-81
2023/09/05 11:49:36;;;;;;;2.27;2.07;;;23.60;94.00;;;;;;10212196;29;20657;-82
2023/09/05 11:54:40;;;;;;;3.40;3.13;;;23.60;94.00;;;;;;10212635;28;20654;-82
2023/09/05 11:59:42;;;;;;;2.50;2.30;;;23.60;94.10;;;;;;10303318;22;20230;-78
2023/09/05 12:04:46;;;;;;;3.37;2.80;;;23.70;94.00;;;;;;10417195;28;20214;-79
2023/09/05 12:09:48;;;;;;;2.87;2.77;;;23.80;93.80;;;;;;10416827;28;20567;-79
2023/09/05 12:14:51;;;;;;;2.13;2.03;;;23.70;94.40;;;;;;10415677;28;20580;-79
2023/09/05 12:19:56;;;;;;;2.83;2.63;;;23.80;93.20;;;;;;10415171;28;20225;-80
2023/09/05 12:25:14;;;;;;;3.07;2.87;;;23.90;93.60;;;;;;10415775;28;20222;-78
2023/09/05 12:30:29;;;;;;;2.67;2.50;;;23.80;94.80;;;;;;10415706;28;20313;-79
2023/09/05 12:35:34;;;;;;;2.67;2.33;;;23.70;95.50;;;;;;10417892;28;20671;-79
2023/09/05 12:40:37;;;;;;;4.10;2.30;;;23.70;94.50;;;;;;10415159;28;20277;-80
2023/09/05 12:45:44;;;;;;;2.70;2.50;;;23.70;94.00;;;;;;10417079;28;20210;-79
2023/09/05 12:50:49;;;;;;;2.87;2.67;;;23.80;93.70;;;;;;10414054;28;20242;-80
2023/09/05 12:55:51;;;;;;;3.57;2.60;;;23.80;95.00;;;;;;10416321;28;20248;-80
2023/09/05 13:00:53;;;;;;;2.60;2.50;;;23.80;93.40;;;;;;10413098;28;20222;-79
2023/09/05 13:05:56;;;;;;;2.67;2.57;;;23.90;93.90;;;;;;10414085;28;20277;-80
2023/09/05 13:10:59;;;;;;;2.40;2.30;;;23.90;95.60;;;;;;10414825;28;20238;-80
2023/09/05 13:16:01;;;;;;;2.77;2.63;;;23.90;95.60;;;;;;10415473;28;20198;-79
2023/09/05 13:21:05;;;;;;;2.27;2.13;;;23.80;95.20;;;;;;10411996;28;20228;-79
2023/09/05 13:26:07;;;;;;;2.60;2.50;;;23.80;95.40;;;;;;10415665;28;20205;-80
2023/09/05 13:31:10;;;;;;;2.50;2.40;;;23.90;94.10;;;;;;10413209;28;20233;-80
2023/09/05 13:36:14;;;;;;;2.20;2.10;;;23.90;95.10;;;;;;10414711;28;20271;-80
2023/09/05 13:41:16;;;;;;;2.30;2.20;;;24.10;93.70;;;;;;10414035;28;20210;-80
2023/09/05 13:46:19;;;;;;;2.20;2.10;;;24.20;93.90;;;;;;10416344;28;20199;-80
2023/09/05 13:51:23;;;;;;;3.40;2.30;;;24.20;93.80;;;;;;10414985;28;20238;-80
2023/09/05 13:56:25;;;;;;;10.47;8.77;;;24.30;93.80;;;;;;10414534;28;20199;-79
2023/09/05 14:01:27;;;;;;;3.50;2.27;;;24.40;94.40;;;;;;10415410;28;20222;-77
2023/09/05 14:06:30;;;;;;;2.30;2.20;;;24.50;94.70;;;;;;10411057;28;20207;-78
2023/09/05 14:11:33;;;;;;;2.23;2.13;;;24.60;94.20;;;;;;10411364;28;20733;-79
2023/09/05 14:16:35;;;;;;;2.53;2.33;;;24.70;93.90;;;;;;10409548;28;20286;-80
2023/09/05 14:21:38;;;;;;;4.33;2.30;;;24.80;94.00;;;;;;10411026;28;20222;-78
2023/09/05 14:26:40;;;;;;;2.40;2.30;;;24.80;93.20;;;;;;10411008;28;20214;-80
2023/09/05 14:31:42;;;;;;;3.40;2.30;;;24.90;94.10;;;;;;10411100;28;20218;-79
2023/09/05 14:36:46;;;;;;;2.30;2.20;;;24.90;93.80;;;;;;10412996;28;20286;-80
2023/09/05 14:41:48;;;;;;;2.63;2.40;;;25.00;93.60;;;;;;10415450;28;20254;-78
2023/09/05 14:46:50;;;;;;;2.20;2.10;;;24.90;94.60;;;;;;10419360;28;20210;-78
2023/09/05 14:51:53;;;;;;;2.53;2.33;;;24.90;95.30;;;;;;10416946;28;20222;-79
2023/09/05 14:56:55;;;;;;;2.70;2.50;;;24.90;95.30;;;;;;10418601;28;20195;-80
2023/09/05 15:01:57;;;;;;;4.10;2.00;;;24.90;94.50;;;;;;10418925;28;20222;-80
2023/09/05 15:07:03;;;;;;;6.03;4.60;;;24.80;95.30;;;;;;10416022;28;20206;-79
2023/09/05 15:12:06;;;;;;;3.47;2.77;;;24.70;96.30;;;;;;10413415;28;20233;-79
2023/09/05 15:17:08;;;;;;;2.33;2.13;;;24.50;96.10;;;;;;10415496;28;20209;-80
2023/09/05 15:22:12;;;;;;;1.97;1.87;;;24.30;97.00;;;;;;10418266;28;20245;-80
2023/09/05 15:27:14;;;;;;;2.57;2.40;;;24.20;96.90;;;;;;10416315;28;20207;-80
2023/09/05 15:32:16;;;;;;;2.80;2.60;;;24.00;97.30;;;;;;10416360;28;20704;-78
2023/09/05 15:37:20;;;;;;;3.13;2.83;;;24.00;96.90;;;;;;10415773;28;20206;-80
2023/09/05 15:42:22;;;;;;;2.40;2.30;;;24.00;95.90;;;;;;10413758;28;20230;-79
2023/09/05 15:47:26;;;;;;;2.70;2.50;;;24.20;95.70;;;;;;10413297;28;20246;-79
2023/09/05 15:52:29;;;;;;;2.60;2.40;;;24.30;95.90;;;;;;10414382;28;20257;-79
2023/09/05 15:57:31;;;;;;;2.43;2.30;;;24.30;96.40;;;;;;10417312;28;20277;-78
2023/09/05 16:02:33;;;;;;;2.87;2.67;;;24.30;97.00;;;;;;10411706;28;20226;-79
2023/09/05 16:07:37;;;;;;;2.50;2.40;;;24.30;96.30;;;;;;10415563;28;20226;-79
2023/09/05 16:12:39;;;;;;;3.00;2.70;;;24.20;96.90;;;;;;10413446;28;20218;-79
2023/09/05 16:17:41;;;;;;;2.67;2.57;;;24.10;97.50;;;;;;10413950;28;20214;-79
2023/09/05 16:22:45;;;;;;;2.47;2.37;;;24.00;98.60;;;;;;10413955;28;20230;-79
2023/09/05 16:27:47;;;;;;;2.90;2.70;;;23.90;98.80;;;;;;10417859;28;20259;-78
2023/09/05 16:32:49;;;;;;;2.90;2.70;;;23.80;98.50;;;;;;10428826;28;20218;-77
2023/09/05 16:37:53;;;;;;;3.20;3.00;;;23.80;98.90;;;;;;10426215;28;20574;-78
2023/09/05 16:42:55;;;;;;;2.97;2.80;;;23.70;99.60;;;;;;10422143;28;20691;-77
2023/09/05 16:47:57;;;;;;;2.90;2.70;;;23.60;99.90;;;;;;10429703;28;20314;-78
2023/09/05 16:53:01;;;;;;;2.70;2.60;;;23.50;99.90;;;;;;10427141;28;20215;-77
2023/09/05 16:58:04;;;;;;;3.30;3.10;;;23.40;99.90;;;;;;10430340;28;20202;-78
2023/09/05 17:03:07;;;;;;;3.23;3.03;;;23.30;99.90;;;;;;10434730;28;20289;-78
2023/09/05 17:08:15;;;;;;;3.60;3.30;;;23.20;99.90;;;;;;10430229;28;20221;-79
2023/09/05 17:13:17;;;;;;;3.07;2.87;;;23.20;99.90;;;;;;10429232;28;20257;-78
2023/09/05 17:18:19;;;;;;;4.20;3.80;;;23.10;99.90;;;;;;10424376;28;20207;-79
2023/09/05 17:23:24;;;;;;;3.50;3.30;;;23.10;99.90;;;;;;10428402;28;20749;-78
2023/09/05 17:28:26;;;;;;;3.10;2.90;;;23.00;99.90;;;;;;10430601;28;20226;-78
2023/09/05 17:33:29;;;;;;;3.30;3.10;;;22.90;99.90;;;;;;10429665;28;20638;-78
2023/09/05 17:38:32;;;;;;;3.50;3.20;;;22.90;99.90;;;;;;10429817;28;20246;-78
2023/09/05 17:43:34;;;;;;;3.80;3.50;;;22.90;99.90;;;;;;10428809;28;20651;-77
2023/09/05 17:48:36;;;;;;;4.20;3.80;;;22.80;99.90;;;;;;10432878;28;20206;-78
2023/09/05 17:53:40;;;;;;;3.70;3.40;;;22.70;99.90;;;;;;10433882;28;20221;-78
2023/09/05 17:58:42;;;;;;;4.07;3.77;;;22.60;99.90;;;;;;10469804;23;20229;-81
2023/09/05 18:03:44;;;;;;;4.80;3.77;;;22.50;99.90;;;;;;10377404;28;20207;-82
2023/09/05 18:08:48;;;;;;;4.67;4.03;;;22.50;99.90;;;;;;10377777;28;20596;-82
2023/09/05 18:13:50;;;;;;;4.33;4.03;;;22.40;99.90;;;;;;10379595;28;20207;-82
2023/09/05 18:18:52;;;;;;;3.70;3.40;;;22.30;99.90;;;;;;10367760;28;20227;-82
2023/09/05 18:23:55;;;;;;;4.13;3.83;;;22.30;99.90;;;;;;10376491;28;20226;-82
2023/09/05 18:28:58;;;;;;;4.27;3.97;;;22.30;99.90;;;;;;10375477;28;20696;-82
2023/09/05 18:34:00;;;;;;;4.23;3.93;;;22.20;99.90;;;;;;10378694;28;20289;-81
2023/09/05 18:39:05;;;;;;;4.90;4.40;;;22.10;99.90;;;;;;10379938;28;20219;-82
2023/09/05 18:44:08;;;;;;;3.90;3.70;;;22.10;99.90;;;;;;10361786;28;20199;-82
2023/09/05 18:49:10;;;;;;;4.10;3.80;;;22.00;99.90;;;;;;10379335;28;20659;-82
2023/09/05 18:54:16;;;;;;;4.03;3.70;;;21.90;99.90;;;;;;10381316;28;20459;-82
2023/09/05 18:59:18;;;;;;;3.83;3.57;;;21.90;99.90;;;;;;10379071;28;20230;-82
2023/09/05 19:04:23;;;;;;;4.30;3.93;;;21.80;99.90;;;;;;10378590;28;20290;-82
2023/09/05 19:09:27;;;;;;;4.13;3.83;;;21.80;99.90;;;;;;10359767;28;20222;-80
2023/09/05 19:14:29;;;;;;;4.10;3.80;;;21.70;99.90;;;;;;10373511;28;20207;-80
2023/09/05 19:19:32;;;;;;;4.80;4.30;;;21.60;99.90;;;;;;10368125;28;20704;-80
2023/09/05 19:24:36;;;;;;;4.17;3.77;;;21.60;99.90;;;;;;10377403;28;20572;-80
2023/09/05 19:29:38;;;;;;;5.93;3.70;;;21.50;99.90;;;;;;10376519;28;20224;-80
2023/09/05 19:34:40;;;;;;;4.50;4.10;;;21.50;99.90;;;;;;10380008;28;20200;-80
2023/09/05 19:39:43;;;;;;;4.10;3.80;;;21.40;99.90;;;;;;10381802;28;20564;-80
2023/09/05 19:44:46;;;;;;;4.23;3.93;;;21.40;99.90;;;;;;10379829;28;20207;-80
2023/09/05 19:49:48;;;;;;;4.17;3.80;;;21.30;99.90;;;;;;10380535;28;20235;-81
2023/09/05 19:54:51;;;;;;;4.07;3.73;;;21.30;99.90;;;;;;10380955;28;20210;-80
2023/09/05 19:59:54;;;;;;;3.97;3.67;;;21.20;99.90;;;;;;10379277;28;20577;-80
2023/09/05 20:04:56;;;;;;;4.53;4.10;;;21.20;99.90;;;;;;10373816;28;20199;-80
2023/09/05 20:09:59;;;;;;;4.23;3.90;;;21.10;99.90;;;;;;10379749;28;20219;-80
2023/09/05 20:15:02;;;;;;;4.60;3.83;;;21.00;99.90;;;;;;10373033;28;20203;-80
2023/09/05 20:20:07;;;;;;;3.47;3.27;;;21.00;99.80;;;;;;10377953;28;20207;-80
2023/09/05 20:25:11;;;;;;;4.17;3.77;;;20.90;99.70;;;;;;10380019;28;20210;-80
2023/09/05 20:30:13;;;;;;;7.73;4.53;;;20.90;99.80;;;;;;10379241;28;20223;-80
2023/09/05 20:35:16;;;;;;;4.57;4.20;;;20.80;99.90;;;;;;10380002;28;20602;-80
2023/09/05 20:40:19;;;;;;;5.00;4.50;;;20.70;99.90;;;;;;10381198;28;20657;-80
2023/09/05 20:45:21;;;;;;;4.27;3.97;;;20.70;99.90;;;;;;10382153;28;20207;-80
2023/09/05 20:50:23;;;;;;;5.20;4.80;;;20.70;99.90;;;;;;10382040;28;20223;-80
2023/09/05 20:55:27;;;;;;;4.93;4.53;;;20.60;99.90;;;;;;10380055;28;20207;-80
2023/09/05 21:00:31;;;;;;;3.80;3.50;;;20.50;99.90;;;;;;10378212;28;20235;-80
2023/09/05 21:05:34;;;;;;;5.73;4.23;;;20.40;99.90;;;;;;10378729;28;20201;-79
2023/09/05 21:10:40;;;;;;;4.87;4.40;;;20.40;99.90;;;;;;10376161;28;20273;-81
2023/09/05 21:15:42;;;;;;;5.07;4.67;;;20.30;99.90;;;;;;10378924;28;20281;-81
2023/09/05 21:20:44;;;;;;;5.53;4.73;;;20.30;99.90;;;;;;10376902;28;20605;-81
2023/09/05 21:25:47;;;;;;;4.27;3.97;;;20.30;99.90;;;;;;10378364;28;20306;-81
2023/09/05 21:30:50;;;;;;;5.10;4.50;;;20.20;99.90;;;;;;10376408;28;20306;-81
2023/09/05 21:35:53;;;;;;;4.17;3.87;;;20.10;99.90;;;;;;10382864;28;20229;-80
2023/09/05 21:40:56;;;;;;;5.23;4.83;;;20.00;99.90;;;;;;10386374;28;20223;-81
2023/09/05 21:45:59;;;;;;;4.90;4.40;;;20.00;99.90;;;;;;10379220;28;20203;-81
2023/09/05 21:51:02;;;;;;;4.70;4.40;;;19.90;99.90;;;;;;10384509;28;20662;-81
2023/09/05 21:56:05;;;;;;;8.50;5.57;;;19.90;99.90;;;;;;10388444;28;20294;-81
2023/09/05 22:01:08;;;;;;;5.30;4.73;;;19.80;99.90;;;;;;10385246;28;20231;-81
2023/09/05 22:06:10;;;;;;;4.57;4.13;;;19.80;99.90;;;;;;10387140;28;20766;-81
2023/09/05 22:11:13;;;;;;;4.73;4.33;;;19.70;99.90;;;;;;10344732;28;20230;-81
2023/09/05 22:16:15;;;;;;;5.10;4.60;;;19.70;99.90;;;;;;10387318;28;20570;-81
2023/09/05 22:21:19;;;;;;;7.60;4.47;;;19.70;99.80;;;;;;10384770;28;20230;-81
2023/09/05 22:26:22;;;;;;;4.80;4.40;;;19.60;99.50;;;;;;10387517;28;20195;-81
2023/09/05 22:31:24;;;;;;;5.13;4.60;;;19.60;99.70;;;;;;10382905;28;20241;-81
2023/09/05 22:36:26;;;;;;;5.57;5.17;;;19.60;99.70;;;;;;10386035;28;20215;-81
2023/09/05 22:41:30;;;;;;;5.50;5.10;;;19.50;99.90;;;;;;10384492;28;20230;-81
2023/09/05 22:46:32;;;;;;;4.77;4.17;;;19.50;99.90;;;;;;10385611;28;20205;-81
2023/09/05 22:51:36;;;;;;;5.67;4.93;;;19.40;99.90;;;;;;10384643;28;20230;-80
2023/09/05 22:56:40;;;;;;;9.83;5.30;;;19.30;99.90;;;;;;10385711;28;20200;-81
2023/09/05 23:01:42;;;;;;;5.40;4.93;;;19.30;99.90;;;;;;10341855;28;20223;-81
2023/09/05 23:06:45;;;;;;;5.07;4.57;;;19.20;99.90;;;;;;10343856;28;20196;-81
2023/09/05 23:11:48;;;;;;;5.60;5.20;;;19.20;99.90;;;;;;10343273;28;20251;-81
2023/09/05 23:16:50;;;;;;;5.80;5.30;;;19.10;99.80;;;;;;10342810;28;20203;-81
2023/09/05 23:21:53;;;;;;;5.30;4.80;;;19.10;99.90;;;;;;10342760;28;20220;-81
2023/09/05 23:26:57;;;;;;;8.10;5.27;;;19.00;99.90;;;;;;10343958;28;20224;-81
2023/09/05 23:31:59;;;;;;;5.77;5.17;;;19.00;99.80;;;;;;10340960;28;20602;-81
2023/09/05 23:37:01;;;;;;;6.23;5.63;;;18.90;99.90;;;;;;10342937;28;20203;-81
2023/09/05 23:42:05;;;;;;;6.63;5.80;;;18.90;99.80;;;;;;10342936;28;20235;-80
2023/09/05 23:47:07;;;;;;;5.57;5.17;;;18.90;99.90;;;;;;10342693;28;20196;-80
2023/09/05 23:52:10;;;;;;;5.80;5.30;;;18.90;99.40;;;;;;10341859;28;20223;-81
2023/09/05 23:57:13;;;;;;;5.90;5.27;;;18.80;99.40;;;;;;10341731;28;20207;-81
